Airfield :
LOGIN :

Register | Disclaimer

   EN    FR    IT 

 










Legend :    VFR   Marginal VFR   IFR   Intensive IFR   Very Intensive IFR
Visi :
Ceiling :
>= 8 km
>= 3000ft
5 to 8 km
1000 to 3000 ft
1500m to 5 km
500 to 1000 ft
800 to 1500m
200 to 500 ft
< 800m
< 200 ft
Symbols :   Thunderstorms  Fog  Heavy snow  Heavy precipitations  Wind > 20 kt
SIGMETs :     Misc.  Thunderstorms  Icing  Turbulence  Mountain Waves  Volcanic Ashes






- Airport Elevation : 375 ft
- IATA code : MST


EHBK - Maastricht Aachen

CURRENT METAR :
  • 151325Z AUTO VRB02KT 9999 TS FEW026CB 24/18 Q1015 REDZ TEMPO 4000 TSRA SCT030CB

EXPIRED METARs :
  • 151255Z AUTO 07003KT 030V120 9999 NSC 25/18 Q1015 TEMPO 4000 TSRA SCT030CB
  • 151225Z AUTO 08003KT 050V120 9999 NSC 25/18 Q1015 TEMPO 6000 SHRA FEW030CB
  • 151155Z AUTO VRB03KT 8000 NSC 25/18 Q1015 TEMPO 6000 SHRA FEW030CB
  • 151125Z AUTO 05003KT 010V100 8000 BKN023 BKN027 BKN030 24/18 Q1015 TEMPO 6000 SHRA FEW030CB
  • 151055Z AUTO 29003KT 240V010 8000 BKN026 BKN030 BKN035 25/18 Q1015 NOSIG

TAF COR TAF EHBK
Valid from the 15 at 12:00 until the 16 at 18:00 UTC


151116Z 1512/1618 26005KT 9999 SCT030
PROB30
TEMPO 1512/1518 VRB10G20KT 4000 SHRA TSRA FEW030CB
PROB30 1600/1608 6000
TEMPO 1612/1618 4000 SHRA TSRA SCT035CB
PROB40
TEMPO 1613/1618 VRB15G28KT 2500 +TSRAGR BKN030CB



MET'MAP, your aeronautical weather chart ! - Copyright ORBIFLY December 2007 - Disclaimer

ORBIFLY MET'MAP TEAM :

Programming & Development : Alexandra Zaïnal
Concept & original design : Baudouin d'Aumeries
Assistance for programming : Marc-Olivier Méhu
Technical & hardware support : Manuel Goepfert

Contact : metmap@orbifly.com




SOURCES & CREDITS :

   NOAA